Time;durP1;ratioP1;P1;durP2;ratioP2;P2;SDS_P1;SDS_P2;PMS_P1;PMS_P2;Temp;Humidity;BMP_temperature;BMP_pressure;BME280_temperature;BME280_humidity;BME280_pressure;Samples;Min_cycle;Max_cycle;Signal;HPM_P1;HPM_P2
2021/05/04 00:00:33;;;;;;;;;1.00;1.00;;;;;19.21;20.33;98674.34;4960683;28;8798;-49
2021/05/04 00:02:59;;;;;;;;;2.00;2.00;;;;;19.19;20.31;98671.94;4958277;28;8796;-49
2021/05/04 00:05:24;;;;;;;;;2.00;2.00;;;;;19.19;20.00;98673.88;4962123;28;8804;-48
2021/05/04 00:07:50;;;;;;;;;2.00;2.00;;;;;19.16;19.98;98667.16;4960930;28;8797;-49
2021/05/04 00:10:15;;;;;;;;;2.00;2.00;;;;;19.17;19.97;98671.50;4960946;28;8801;-49
2021/05/04 00:12:41;;;;;;;;;1.50;1.50;;;;;18.82;22.56;98674.81;4958449;28;8868;-49
2021/05/04 00:15:08;;;;;;;;;2.00;2.00;;;;;18.97;21.10;98672.50;4958211;28;8809;-50
2021/05/04 00:17:33;;;;;;;;;3.20;2.60;;;;;19.09;20.77;98672.44;4970493;28;8904;-50
2021/05/04 00:19:59;;;;;;;;;2.75;2.00;;;;;19.16;20.22;98667.16;4973524;28;9788;-49
2021/05/04 00:22:24;;;;;;;;;2.00;2.00;;;;;19.14;20.24;98657.72;4963006;28;8812;-49
2021/05/04 00:24:49;;;;;;;;;2.00;2.00;;;;;19.18;19.92;98661.34;4957425;28;8857;-50
2021/05/04 00:27:14;;;;;;;;;2.00;2.00;;;;;19.17;19.73;98663.31;4957076;28;8793;-50
2021/05/04 00:29:40;;;;;;;;;2.50;2.50;;;;;19.17;19.86;98659.75;4963346;28;8949;-50
2021/05/04 00:32:05;;;;;;;;;2.00;2.00;;;;;19.17;19.53;98657.03;4969682;28;9126;-49
2021/05/04 00:34:31;;;;;;;;;2.75;2.00;;;;;19.15;19.55;98657.38;4977560;28;8861;-50
2021/05/04 00:36:57;;;;;;;;;2.00;2.00;;;;;19.16;19.31;98660.91;4982901;28;8787;-49
2021/05/04 00:39:26;;;;;;;;;3.00;3.00;;;;;19.18;19.23;98653.16;4966766;28;8832;-49
2021/05/04 00:41:51;;;;;;;;;3.00;2.00;;;;;19.16;19.00;98648.03;4973400;28;8876;-50
2021/05/04 00:44:16;;;;;;;;;2.00;2.00;;;;;19.16;19.12;98644.50;4981651;28;8775;-49
2021/05/04 00:46:42;;;;;;;;;1.75;1.75;;;;;19.15;19.09;98643.69;4981848;28;8746;-50
2021/05/04 00:49:07;;;;;;;;;2.00;2.00;;;;;19.17;19.05;98643.34;4981932;28;9748;-50
2021/05/04 00:51:32;;;;;;;;;2.00;2.00;;;;;19.18;18.94;98648.47;4979011;28;9557;-49
2021/05/04 00:53:58;;;;;;;;;2.25;2.25;;;;;19.15;19.01;98643.69;4984461;28;8925;-49
2021/05/04 00:56:25;;;;;;;;;2.20;2.20;;;;;19.16;19.01;98645.31;4973564;28;8790;-49
2021/05/04 00:58:51;;;;;;;;;2.00;2.00;;;;;19.15;18.81;98646.44;4960695;28;8754;-50
2021/05/04 01:01:18;;;;;;;;;2.00;2.00;;;;;19.16;18.77;98642.56;4980701;28;8825;-46
2021/05/04 01:03:43;;;;;;;;;1.00;1.00;;;;;19.14;18.45;98633.94;4956261;28;8817;-50
2021/05/04 01:06:09;;;;;;;;;1.75;1.75;;;;;19.14;18.57;98631.19;4978551;28;8819;-49
2021/05/04 01:08:34;;;;;;;;;2.00;2.00;;;;;19.13;18.73;98634.28;4981819;28;8830;-50
2021/05/04 01:11:00;;;;;;;;;1.75;1.75;;;;;19.15;18.52;98631.97;4975773;28;8808;-49
2021/05/04 01:13:25;;;;;;;;;2.00;2.00;;;;;19.14;18.49;98630.38;4979498;28;12270;-49
2021/05/04 01:15:50;;;;;;;;;2.00;2.00;;;;;19.14;18.66;98624.91;4959189;28;8851;-49
2021/05/04 01:18:16;;;;;;;;;2.50;2.50;;;;;19.13;18.55;98629.59;4958340;28;8927;-49
2021/05/04 01:20:41;;;;;;;;;2.25;2.00;;;;;19.13;18.48;98620.59;4962489;28;8805;-50
2021/05/04 01:23:07;;;;;;;;;2.00;2.00;;;;;19.12;18.29;98622.56;4967167;28;8857;-50
2021/05/04 01:25:32;;;;;;;;;3.00;3.00;;;;;19.14;18.33;98613.97;4980558;28;11680;-49
2021/05/04 01:27:57;;;;;;;;;2.50;2.50;;;;;19.15;18.20;98619.09;4961840;28;8819;-49
2021/05/04 01:30:23;;;;;;;;;2.25;2.25;;;;;19.14;18.34;98616.72;4970106;28;8814;-49
2021/05/04 01:32:48;;;;;;;;;2.00;2.00;;;;;19.14;18.22;98609.31;4971420;28;8826;-50
2021/05/04 01:35:14;;;;;;;;;2.00;2.00;;;;;19.13;18.27;98612.41;4964284;28;9577;-50
2021/05/04 01:37:39;;;;;;;;;2.00;2.00;;;;;19.14;18.20;98613.97;4977524;28;8769;-50
2021/05/04 01:40:06;;;;;;;;;1.00;1.00;;;;;19.14;18.05;98612.06;4960943;28;8792;-50
2021/05/04 01:42:32;;;;;;;;;2.00;2.00;;;;;19.15;18.11;98610.91;4961064;28;8832;-50
2021/05/04 01:44:57;;;;;;;;;2.00;2.00;;;;;19.14;18.32;98606.59;4969578;28;8830;-49
2021/05/04 01:47:22;;;;;;;;;2.50;2.00;;;;;19.14;18.03;98598.41;4976448;28;8805;-49
2021/05/04 01:49:48;;;;;;;;;2.00;2.00;;;;;19.14;18.09;98597.56;4986277;28;8795;-49
2021/05/04 01:52:13;;;;;;;;;2.00;2.00;;;;;19.12;18.23;98597.94;4979534;28;9551;-49
2021/05/04 01:54:39;;;;;;;;;2.00;2.00;;;;;19.10;18.15;98592.84;4963205;28;8848;-49
2021/05/04 01:57:05;;;;;;;;;2.00;2.00;;;;;19.11;17.92;98582.69;4960721;28;8801;-49
2021/05/04 01:59:30;;;;;;;;;1.00;1.00;;;;;19.14;18.04;98592.13;4966870;28;8799;-50
2021/05/04 02:01:57;;;;;;;;;2.75;2.00;;;;;19.14;17.89;98592.13;4984586;28;8759;-50
2021/05/04 02:04:24;;;;;;;;;2.20;2.20;;;;;19.14;17.85;98590.19;4980853;28;9284;-49
2021/05/04 02:06:50;;;;;;;;;2.00;2.00;;;;;19.16;17.90;98590.63;4974968;28;8805;-49
2021/05/04 02:09:15;;;;;;;;;2.00;2.00;;;;;19.14;17.67;98579.25;4984766;28;8790;-49
2021/05/04 02:11:40;;;;;;;;;2.00;2.00;;;;;19.15;17.74;98583.56;4982847;28;11666;-50
2021/05/04 02:14:07;;;;;;;;;2.00;2.00;;;;;19.17;17.52;98575.84;4978627;28;8775;-49
2021/05/04 02:16:33;;;;;;;;;2.00;2.00;;;;;19.18;17.71;98576.63;4981589;28;8941;-49
2021/05/04 02:18:58;;;;;;;;;2.80;2.80;;;;;19.17;17.69;98575.84;4984657;28;8944;-49
2021/05/04 02:21:24;;;;;;;;;2.00;2.00;;;;;19.17;17.74;98564.91;4978222;28;8809;-49
2021/05/04 02:23:50;;;;;;;;;1.25;1.25;;;;;19.19;17.40;98568.06;4968956;28;8800;-49
2021/05/04 02:26:17;;;;;;;;;2.00;2.00;;;;;19.20;17.45;98569.63;4969955;28;8886;-49
2021/05/04 02:28:43;;;;;;;;;1.20;1.20;;;;;19.17;17.61;98567.63;4974136;28;8781;-50
2021/05/04 02:31:08;;;;;;;;;2.00;2.00;;;;;19.18;17.29;98558.28;4984786;28;8909;-49
2021/05/04 02:33:35;;;;;;;;;2.00;2.00;;;;;19.19;17.27;98568.06;4979958;28;8941;-49
2021/05/04 02:36:00;;;;;;;;;2.00;2.00;;;;;19.21;17.39;98560.31;4969165;28;8817;-49
2021/05/04 02:38:26;;;;;;;;;2.25;2.25;;;;;19.20;17.63;98555.19;4962935;28;8804;-49
2021/05/04 02:40:51;;;;;;;;;2.00;2.00;;;;;19.20;17.41;98552.44;4959336;28;8794;-49
2021/05/04 02:43:17;;;;;;;;;1.75;1.75;;;;;19.21;17.38;98554.06;4961991;28;8828;-47
2021/05/04 02:45:42;;;;;;;;;2.00;2.00;;;;;19.19;17.34;98548.94;4956871;28;8915;-49
2021/05/04 02:48:08;;;;;;;;;2.00;2.00;;;;;19.20;17.39;98553.25;4975044;28;8822;-49
2021/05/04 02:50:33;;;;;;;;;1.50;1.00;;;;;19.19;17.41;98548.94;4971446;28;8869;-49
2021/05/04 02:52:58;;;;;;;;;2.00;2.00;;;;;19.22;17.28;98550.94;4981150;28;8829;-49
2021/05/04 02:55:25;;;;;;;;;1.50;1.50;;;;;19.22;17.26;98550.16;4981011;28;8965;-49
2021/05/04 02:57:50;;;;;;;;;2.00;2.00;;;;;19.20;17.16;98552.44;4978380;28;8793;-50
2021/05/04 03:00:19;;;;;;;;;2.00;2.00;;;;;19.22;17.16;98544.69;4983006;28;8791;-49
2021/05/04 03:02:44;;;;;;;;;2.00;2.00;;;;;19.22;17.15;98541.97;4978576;28;8791;-49
2021/05/04 03:05:10;;;;;;;;;2.00;2.00;;;;;19.23;17.08;98541.59;4979456;28;8816;-49
2021/05/04 03:07:35;;;;;;;;;2.00;2.00;;;;;19.23;17.40;98541.59;4980831;28;8908;-50
2021/05/04 03:10:00;;;;;;;;;2.25;2.25;;;;;19.21;17.30;98541.16;4980451;28;9360;-50
2021/05/04 03:12:26;;;;;;;;;2.00;2.00;;;;;19.24;17.18;98543.22;4983659;28;8803;-49
2021/05/04 03:14:51;;;;;;;;;2.00;2.00;;;;;19.24;17.22;98540.47;4979527;28;8913;-49
2021/05/04 03:17:16;;;;;;;;;1.25;1.25;;;;;19.24;17.15;98537.75;4970872;28;8800;-50
2021/05/04 03:19:42;;;;;;;;;3.00;3.00;;;;;19.25;17.22;98530.31;4959819;28;8781;-49
2021/05/04 03:22:07;;;;;;;;;2.00;2.00;;;;;19.33;16.89;98520.34;4979447;28;8849;-49
2021/05/04 03:24:33;;;;;;;;;1.50;1.50;;;;;19.62;16.99;98519.88;4953905;28;9560;-50
2021/05/04 03:26:58;;;;;;;;;2.00;2.00;;;;;19.75;17.74;98519.78;4968822;28;8841;-49
2021/05/04 03:29:24;;;;;;;;;2.00;2.00;;;;;19.72;19.06;98515.81;4978124;28;8782;-49
2021/05/04 03:31:49;;;;;;;;;2.00;2.00;;;;;19.61;19.55;98521.03;4981072;28;8873;-49
2021/05/04 03:34:14;;;;;;;;;2.50;2.50;;;;;19.50;20.20;98514.50;4985420;28;8871;-49
2021/05/04 03:36:39;;;;;;;;;1.00;1.00;;;;;19.39;20.65;98506.06;4961419;28;8821;-49
2021/05/04 03:39:05;;;;;;;;;2.25;2.25;;;;;19.28;20.95;98511.28;4959377;28;8894;-49
2021/05/04 03:41:30;;;;;;;;;2.00;2.00;;;;;19.18;21.42;98506.34;4965473;28;8845;-49
2021/05/04 03:43:56;;;;;;;;;2.00;2.00;;;;;19.11;21.69;98487.03;4973870;28;9564;-49
2021/05/04 03:46:21;;;;;;;;;2.00;2.00;;;;;19.04;21.90;98489.59;4975801;28;8793;-49
2021/05/04 03:48:46;;;;;;;;;2.00;2.00;;;;;18.98;22.14;98486.34;4965869;28;8883;-49
2021/05/04 03:51:12;;;;;;;;;2.75;2.00;;;;;19.03;21.69;98480.59;4977274;28;8929;-49
2021/05/04 03:53:38;;;;;;;;;2.75;2.75;;;;;19.16;20.72;98475.81;4966165;28;8820;-49
2021/05/04 03:56:04;;;;;;;;;2.40;2.40;;;;;19.38;19.83;98479.06;4958036;28;8777;-50
2021/05/04 03:58:31;;;;;;;;;2.60;2.60;;;;;19.42;19.51;98482.69;4960528;28;9578;-49
2021/05/04 04:00:56;;;;;;;;;2.00;2.00;;;;;19.42;19.47;98477.22;4964811;28;8832;-49
2021/05/04 04:03:21;;;;;;;;;2.00;2.00;;;;;19.35;18.98;98480.56;4980878;28;8829;-49
2021/05/04 04:05:47;;;;;;;;;2.00;2.00;;;;;19.22;18.86;98479.88;4967041;28;8940;-49
2021/05/04 04:08:12;;;;;;;;;2.75;2.75;;;;;19.11;19.18;98478.81;4953284;28;11157;-49
2021/05/04 04:10:39;;;;;;;;;1.75;1.75;;;;;19.03;18.85;98479.78;4957256;28;13661;-49
2021/05/04 04:13:05;;;;;;;;;2.00;2.00;;;;;19.02;18.79;98475.50;4962410;28;8782;-49
2021/05/04 04:15:31;;;;;;;;;2.00;2.00;;;;;19.01;18.40;98474.66;4977999;28;8865;-50
2021/05/04 04:17:56;;;;;;;;;2.00;2.00;;;;;19.02;18.66;98475.50;4967921;28;8808;-49
2021/05/04 04:20:22;;;;;;;;;2.50;2.50;;;;;19.04;18.30;98467.72;4956460;28;8846;-49
2021/05/04 04:22:47;;;;;;;;;2.00;2.00;;;;;19.04;18.22;98473.97;4961974;28;8800;-50
2021/05/04 04:25:13;;;;;;;;;2.00;2.00;;;;;18.98;18.26;98466.38;4963535;28;9712;-50
2021/05/04 04:27:38;;;;;;;;;3.00;3.00;;;;;19.00;18.00;98473.09;4972753;28;8828;-49
2021/05/04 04:30:04;;;;;;;;;2.25;2.25;;;;;19.02;18.18;98465.34;4965359;28;8824;-49
2021/05/04 04:32:29;;;;;;;;;2.00;2.00;;;;;19.02;17.96;98464.56;4952328;28;8780;-49
2021/05/04 04:34:55;;;;;;;;;2.00;2.00;;;;;19.02;18.00;98468.06;4962207;28;8990;-49
2021/05/04 04:37:21;;;;;;;;;2.25;2.25;;;;;19.07;17.73;98467.03;4974324;28;9602;-46
2021/05/04 04:39:46;;;;;;;;;2.00;2.00;;;;;19.07;17.77;98461.56;4956827;28;9583;-47
2021/05/04 04:42:11;;;;;;;;;3.00;3.00;;;;;19.06;17.76;98457.22;4955942;28;8901;-47
2021/05/04 04:44:37;;;;;;;;;2.00;2.00;;;;;19.07;17.78;98453.34;4966500;28;8787;-48
2021/05/04 04:47:05;;;;;;;;;1.50;1.50;;;;;19.09;17.59;98459.25;4966671;28;8866;-46
2021/05/04 04:49:30;;;;;;;;;2.00;2.00;;;;;19.09;17.63;98451.06;4958319;28;8825;-47
2021/05/04 04:51:56;;;;;;;;;2.00;2.00;;;;;19.09;17.70;98453.78;4955351;28;9807;-47
2021/05/04 04:54:21;;;;;;;;;2.00;2.00;;;;;19.09;17.58;98448.31;4966765;28;8854;-47
2021/05/04 04:56:46;;;;;;;;;2.00;2.00;;;;;19.10;17.55;98444.44;4981017;28;9594;-47
2021/05/04 04:59:13;;;;;;;;;2.50;2.50;;;;;19.13;17.51;98448.41;4967958;28;9534;-47
2021/05/04 05:01:38;;;;;;;;;3.00;2.00;;;;;19.09;17.61;98442.88;4954235;28;8798;-47
2021/05/04 05:04:05;;;;;;;;;2.00;2.00;;;;;19.13;17.60;98445.69;4956004;28;8806;-47
2021/05/04 05:06:31;;;;;;;;;3.00;3.00;;;;;19.14;17.37;98437.13;4970057;28;8803;-47
2021/05/04 05:08:56;;;;;;;;;3.00;3.00;;;;;19.16;17.26;98434.81;4970363;28;8810;-47
2021/05/04 05:11:22;;;;;;;;;2.00;2.00;;;;;19.13;17.25;98438.25;4962994;28;8786;-49
2021/05/04 05:13:47;;;;;;;;;2.00;2.00;;;;;19.16;17.38;98443.03;4955124;28;8826;-49
2021/05/04 05:16:15;;;;;;;;;1.80;1.80;;;;;19.16;17.24;98444.97;4974269;28;8862;-49
2021/05/04 05:18:41;;;;;;;;;2.00;2.00;;;;;19.16;17.25;98443.03;4975483;28;8817;-50
2021/05/04 05:21:07;;;;;;;;;2.75;2.75;;;;;19.16;17.08;98443.03;4981077;28;8799;-49
2021/05/04 05:23:33;;;;;;;;;2.00;2.00;;;;;19.16;17.17;98437.56;4974619;28;8795;-49
2021/05/04 05:26:02;;;;;;;;;2.00;2.00;;;;;19.18;17.13;98442.69;4978361;28;8787;-50
2021/05/04 05:28:27;;;;;;;;;2.40;2.40;;;;;19.17;17.17;98443.81;4976277;28;10170;-49
2021/05/04 05:30:53;;;;;;;;;2.00;2.00;;;;;19.19;17.21;98442.31;4976348;28;8880;-49
2021/05/04 05:33:19;;;;;;;;;2.00;2.00;;;;;19.21;16.96;98440.03;4982425;28;9581;-50
2021/05/04 05:35:45;;;;;;;;;2.00;2.00;;;;;19.19;16.87;98434.13;4970329;28;8949;-49
2021/05/04 05:38:10;;;;;;;;;1.50;1.50;;;;;19.20;16.90;98441.16;4968885;28;9679;-50
2021/05/04 05:40:35;;;;;;;;;2.00;2.00;;;;;19.18;16.95;98439.94;4958227;28;8813;-49
2021/05/04 05:43:01;;;;;;;;;1.00;1.00;;;;;19.20;17.05;98432.19;4980632;28;8817;-49
2021/05/04 05:45:26;;;;;;;;;2.00;2.00;;;;;19.20;16.90;98435.69;4980368;28;9052;-49
2021/05/04 05:47:51;;;;;;;;;2.00;2.00;;;;;19.23;17.02;98428.75;4979032;28;8838;-49
2021/05/04 05:50:18;;;;;;;;;2.00;2.00;;;;;19.23;16.75;98426.78;4982704;28;9660;-49
2021/05/04 05:52:43;;;;;;;;;2.00;2.00;;;;;19.25;16.83;98423.72;4972693;28;8947;-49
2021/05/04 05:55:09;;;;;;;;;3.00;3.00;;;;;19.24;16.82;98427.56;4959162;28;8876;-49
2021/05/04 05:57:35;;;;;;;;;2.00;2.00;;;;;19.23;16.97;98426.00;4953237;28;8920;-49
2021/05/04 06:00:00;;;;;;;;;1.75;1.75;;;;;19.26;16.95;98436.22;4961354;28;8991;-49
2021/05/04 06:02:25;;;;;;;;;1.75;1.75;;;;;19.24;17.04;98433.84;4967501;28;8903;-49
2021/05/04 06:04:52;;;;;;;;;1.00;1.00;;;;;19.24;16.80;98428.38;4980258;28;8787;-49
2021/05/04 06:07:17;;;;;;;;;2.00;2.00;;;;;19.24;16.78;98431.13;4977202;28;8806;-46
2021/05/04 06:09:43;;;;;;;;;2.00;2.00;;;;;19.22;17.04;98430.66;4970940;28;8787;-50
2021/05/04 06:12:08;;;;;;;;;1.25;1.25;;;;;19.22;16.91;98425.19;4971321;28;8834;-49
2021/05/04 06:14:34;;;;;;;;;2.00;2.00;;;;;19.24;16.77;98431.13;4972883;28;8822;-49
2021/05/04 06:16:59;;;;;;;;;2.00;2.00;;;;;19.26;17.02;98434.28;4972157;28;11510;-49
2021/05/04 06:19:24;;;;;;;;;2.00;2.00;;;;;19.26;16.73;98433.47;4970958;28;8831;-50
2021/05/04 06:21:50;;;;;;;;;1.75;1.75;;;;;19.28;16.71;98437.47;4975642;28;8812;-49
2021/05/04 06:24:15;;;;;;;;;2.75;2.75;;;;;19.28;16.63;98423.78;4954907;28;9559;-49
2021/05/04 06:26:40;;;;;;;;;2.00;2.00;;;;;19.33;16.83;98425.47;4954905;28;9240;-45
2021/05/04 06:29:07;;;;;;;;;2.00;2.00;;;;;18.70;24.14;98426.28;4961972;28;8808;-48
2021/05/04 06:31:33;;;;;;;;;2.00;2.00;;;;;19.02;20.28;98429.03;4978713;28;8810;-51
2021/05/04 06:33:58;;;;;;;;;2.00;2.00;;;;;19.21;19.65;98425.56;4955725;28;8826;-51
2021/05/04 06:36:24;;;;;;;;;2.00;2.00;;;;;19.31;18.76;98422.28;4978561;28;8872;-51
2021/05/04 06:38:49;;;;;;;;;2.00;2.00;;;;;19.32;18.57;98417.63;4967540;28;8793;-51
2021/05/04 06:41:14;;;;;;;;;2.00;2.00;;;;;19.34;18.39;98423.50;4957425;28;8793;-50
2021/05/04 06:43:40;;;;;;;;;3.00;2.25;;;;;19.36;18.06;98418.47;4961223;28;9431;-51
2021/05/04 06:46:06;;;;;;;;;2.00;2.00;;;;;19.40;17.71;98408.41;4979423;28;8849;-51
2021/05/04 06:48:31;;;;;;;;;2.00;2.00;;;;;19.38;17.72;98416.19;4960497;28;8828;-51
2021/05/04 06:50:57;;;;;;;;;2.00;2.00;;;;;19.39;17.48;98409.56;4957447;28;9581;-48
2021/05/04 06:53:24;;;;;;;;;1.40;1.40;;;;;19.36;17.41;98402.84;4958064;28;8837;-51
2021/05/04 06:55:49;;;;;;;;;1.20;1.20;;;;;19.40;17.22;98402.94;4961641;28;8779;-51
2021/05/04 06:58:15;;;;;;;;;2.75;2.75;;;;;19.41;17.20;98399.84;4978322;28;8846;-52
2021/05/04 07:00:40;;;;;;;;;2.00;2.00;;;;;19.41;17.28;98399.84;4961167;28;9230;-52
2021/05/04 07:03:06;;;;;;;;;2.00;2.00;;;;;19.40;17.02;98395.53;4972358;28;8811;-51
2021/05/04 07:05:31;;;;;;;;;2.00;2.00;;;;;19.42;17.00;98395.19;4967098;28;8809;-52
2021/05/04 07:07:56;;;;;;;;;2.50;2.50;;;;;19.40;16.95;98392.81;4958645;28;8969;-51
2021/05/04 07:10:22;;;;;;;;;1.00;1.00;;;;;19.41;17.02;98383.44;4958534;28;8924;-51
2021/05/04 07:12:47;;;;;;;;;2.25;2.25;;;;;19.43;16.70;98380.34;4955950;28;8797;-52
2021/05/04 07:15:13;;;;;;;;;2.00;2.00;;;;;19.41;17.06;98380.72;4958904;28;11527;-51
2021/05/04 07:17:38;;;;;;;;;1.00;1.00;;;;;19.42;16.84;98379.56;4959997;28;8904;-51
2021/05/04 07:20:05;;;;;;;;;2.00;2.00;;;;;19.43;17.01;98374.88;4957914;28;8805;-52
2021/05/04 07:22:33;;;;;;;;;2.60;2.00;;;;;19.42;17.08;98378.78;4959691;28;8798;-51
2021/05/04 07:24:58;;;;;;;;;1.80;1.80;;;;;19.45;16.86;98376.13;4978723;28;8794;-51
2021/05/04 07:27:24;;;;;;;;;2.00;2.00;;;;;19.45;16.94;98383.50;4959901;28;8792;-52
2021/05/04 07:29:49;;;;;;;;;1.00;1.00;;;;;19.42;17.16;98370.59;4957509;28;8941;-52
2021/05/04 07:32:17;;;;;;;;;1.00;1.00;;;;;19.46;16.97;98379.66;4969433;28;8941;-51
2021/05/04 07:34:43;;;;;;;;;2.00;2.00;;;;;19.46;16.67;98376.91;4974227;28;8882;-51
2021/05/04 07:37:09;;;;;;;;;2.00;2.00;;;;;19.46;16.68;98371.44;4979464;28;8941;-51
2021/05/04 07:39:34;;;;;;;;;2.00;2.00;;;;;19.46;16.68;98369.50;4979548;28;8803;-52
2021/05/04 07:41:59;;;;;;;;;2.00;2.00;;;;;19.47;16.88;98370.28;4976067;28;8864;-51
2021/05/04 07:44:25;;;;;;;;;2.00;2.00;;;;;19.48;16.56;98372.66;4978052;28;8778;-51
2021/05/04 07:46:50;;;;;;;;;2.00;2.00;;;;;19.49;16.67;98368.78;4979556;28;8804;-51
2021/05/04 07:49:22;;;;;;;;;2.00;2.00;;;;;19.49;16.65;98370.72;4976883;28;8885;-52
2021/05/04 07:51:48;;;;;;;;;2.00;2.00;;;;;19.52;16.45;98361.00;4976660;28;8793;-51
2021/05/04 07:54:13;;;;;;;;;2.00;2.00;;;;;19.71;16.11;98362.97;4936641;28;62155;-51
2021/05/04 07:56:39;;;;;;;;;2.00;2.00;;;;;19.85;16.66;98357.78;4972702;28;9660;-51
2021/05/04 07:59:05;;;;;;;;;2.00;2.00;;;;;19.93;17.85;98353.25;4979754;28;8801;-51
2021/05/04 08:01:30;;;;;;;;;1.75;1.00;;;;;19.84;18.66;98353.47;4977538;28;8802;-52
2021/05/04 08:03:56;;;;;;;;;1.50;1.50;;;;;19.71;19.44;98347.31;4977226;28;11536;-51
2021/05/04 08:06:21;;;;;;;;;2.00;2.00;;;;;19.63;19.91;98345.59;4974262;28;8881;-51
2021/05/04 08:08:46;;;;;;;;;2.00;2.00;;;;;19.52;20.37;98348.13;4979872;28;8791;-51
2021/05/04 08:11:12;;;;;;;;;2.00;2.00;;;;;19.34;20.96;98349.69;4966106;28;9571;-50
2021/05/04 08:13:38;;;;;;;;;2.00;2.00;;;;;19.29;21.83;98345.28;4962284;28;8810;-49
2021/05/04 08:16:07;;;;;;;;;2.00;2.00;;;;;19.26;21.99;98343.25;4978726;28;8842;-51
2021/05/04 08:18:33;;;;;;;;;2.00;2.00;;;;;19.22;22.17;98345.91;4959191;28;8813;-49
2021/05/04 08:20:58;;;;;;;;;2.00;2.00;;;;;19.25;21.47;98331.53;4971248;28;8864;-49
2021/05/04 08:23:25;;;;;;;;;1.00;1.00;;;;;19.42;20.48;98340.50;4977313;28;8861;-49
2021/05/04 08:25:51;;;;;;;;;2.00;2.00;;;;;19.60;19.63;98336.19;4977032;28;9700;-50
2021/05/04 08:28:17;;;;;;;;;1.00;1.00;;;;;19.61;19.25;98336.97;4978658;28;8803;-47
2021/05/04 08:30:42;;;;;;;;;1.50;1.50;;;;;19.68;18.80;98339.84;4977375;28;8824;-50
2021/05/04 08:33:08;;;;;;;;;1.00;1.00;;;;;19.53;18.68;98341.50;4977620;28;8806;-50
2021/05/04 08:35:34;;;;;;;;;1.00;1.00;;;;;19.54;18.52;98340.38;4969127;28;8841;-50
2021/05/04 08:37:59;;;;;;;;;1.00;1.00;;;;;19.42;18.59;98327.63;4959018;28;8781;-50
2021/05/04 08:40:25;;;;;;;;;1.00;1.00;;;;;19.46;18.14;98333.16;4957351;28;8837;-51
2021/05/04 08:42:51;;;;;;;;;2.00;2.00;;;;;19.43;18.01;98328.41;4958506;28;8794;-49
2021/05/04 08:45:17;;;;;;;;;1.00;1.00;;;;;19.41;18.09;98334.22;4957479;28;8825;-51
2021/05/04 08:47:50;;;;;;;;;1.80;1.80;;;;;19.43;17.91;98323.72;4969102;28;12409;-50
2021/05/04 08:50:17;;;;;;;;;1.60;1.00;;;;;19.44;17.75;98321.78;4978082;28;8787;-50
2021/05/04 08:52:43;;;;;;;;;2.00;2.00;;;;;19.39;17.76;98322.84;4974057;28;9694;-49
2021/05/04 08:55:10;;;;;;;;;3.00;2.00;;;;;19.42;17.36;98318.63;4983117;28;8831;-51
2021/05/04 08:57:39;;;;;;;;;1.00;1.00;;;;;19.46;17.31;98314.00;4981309;28;8825;-49
2021/05/04 09:00:10;;;;;;;;;1.00;1.00;;;;;19.43;17.27;98310.03;4982004;28;8834;-49
2021/05/04 09:02:38;;;;;;;;;1.00;1.00;;;;;19.47;17.17;98315.59;4979311;28;8759;-49
2021/05/04 09:05:15;;;;;;;;;1.00;1.00;;;;;19.47;17.25;98310.09;4976802;28;8785;-49
2021/05/04 09:07:40;;;;;;;;;1.00;1.00;;;;;19.45;17.40;98302.28;4980692;28;8813;-50
2021/05/04 09:13:06;;;;;;;;;2.00;2.00;;;;;19.52;17.16;98303.56;4974636;28;9537;-51
2021/05/04 09:21:14;;;;;;;;;2.00;2.00;;;;;19.54;17.00;98288.41;4960203;28;8794;-50
2021/05/04 09:23:42;;;;;;;;;1.00;1.00;;;;;19.56;16.91;98286.09;4959093;28;8785;-51
2021/05/04 09:26:31;;;;;;;;;1.00;1.00;;;;;19.55;16.77;98289.97;4958313;28;8786;-52
2021/05/04 09:28:58;;;;;;;;;1.00;1.00;;;;;19.57;16.74;98284.94;4961744;28;8787;-48
2021/05/04 09:31:26;;;;;;;;;1.00;1.00;;;;;19.58;16.91;98272.84;4975548;28;8793;-49
2021/05/04 09:33:52;;;;;;;;;1.00;1.00;;;;;19.58;16.66;98267.38;4975435;28;8840;-48
2021/05/04 09:36:44;;;;;;;;;1.00;1.00;;;;;19.61;16.64;98274.88;4956473;28;8805;-48
2021/05/04 09:39:33;;;;;;;;;1.00;1.00;;;;;19.61;16.46;98266.66;4957724;28;8864;-49
2021/05/04 09:42:01;;;;;;;;;1.00;1.00;;;;;19.62;16.78;98265.50;4970387;28;8810;-49
2021/05/04 09:44:37;;;;;;;;;1.00;1.00;;;;;19.63;16.78;98264.34;4978761;28;8835;-49
2021/05/04 09:47:03;;;;;;;;;2.00;2.00;;;;;19.64;16.53;98259.66;4979816;28;8810;-48
2021/05/04 09:49:32;;;;;;;;;1.00;1.00;;;;;19.64;16.72;98254.97;4982406;28;8893;-48
2021/05/04 09:55:03;;;;;;;;;1.60;1.60;;;;;19.68;16.61;98244.91;4970734;28;8842;-48
2021/05/04 09:57:33;;;;;;;;;1.00;1.00;;;;;19.65;16.53;98242.88;4974625;28;8787;-49
2021/05/04 09:59:59;;;;;;;;;1.20;1.00;;;;;19.68;16.49;98250.38;4960917;28;8790;-48
2021/05/04 10:02:26;;;;;;;;;1.00;1.00;;;;;19.69;16.39;98245.69;4965123;28;8790;-49
2021/05/04 10:04:52;;;;;;;;;2.00;1.00;;;;;19.70;16.33;98249.19;4975911;28;8809;-48
2021/05/04 10:07:20;;;;;;;;;1.00;1.00;;;;;19.71;16.42;98242.59;4976131;28;8824;-49
2021/05/04 10:09:47;;;;;;;;;2.80;2.80;;;;;19.71;16.51;98237.91;4978334;28;8802;-48
2021/05/04 10:12:13;;;;;;;;;1.00;1.00;;;;;19.71;16.54;98235.16;4953551;28;8909;-48
2021/05/04 10:14:41;;;;;;;;;1.00;1.00;;;;;19.71;16.26;98231.66;4959852;28;8887;-48
2021/05/04 10:17:10;;;;;;;;;1.00;1.00;;;;;19.76;16.30;98242.31;4947655;28;62223;-48
2021/05/04 10:19:37;;;;;;;;;1.20;1.20;;;;;19.76;16.36;98231.38;4979869;28;8809;-48
2021/05/04 10:22:04;;;;;;;;;1.20;1.20;;;;;19.76;16.33;98221.22;4958135;28;8841;-50
2021/05/04 10:24:35;;;;;;;;;1.00;1.00;;;;;19.77;16.39;98219.28;4960492;28;9005;-52
2021/05/04 10:27:05;;;;;;;;;1.00;1.00;;;;;19.80;16.25;98219.34;4958269;28;8955;-50
2021/05/04 10:29:31;;;;;;;;;1.00;1.00;;;;;19.80;16.23;98216.59;4965486;28;8806;-50
2021/05/04 10:31:58;;;;;;;;;1.00;1.00;;;;;19.80;15.89;98216.59;4979239;28;8794;-51
2021/05/04 10:34:24;;;;;;;;;1.00;1.00;;;;;19.81;16.23;98220.91;4977329;28;8808;-50
2021/05/04 10:36:57;;;;;;;;;1.00;1.00;;;;;19.74;16.03;98198.13;4960574;28;8825;-50
2021/05/04 10:39:40;;;;;;;;;1.00;1.00;;;;;19.81;16.27;98209.97;4978460;28;8803;-50
2021/05/04 10:42:08;;;;;;;;;1.40;1.40;;;;;19.82;15.99;98205.28;4979774;28;8941;-50
2021/05/04 10:44:59;;;;;;;;;1.60;1.60;;;;;19.83;15.98;98198.69;4971128;28;8796;-51
2021/05/04 10:47:39;;;;;;;;;1.00;1.00;;;;;19.82;16.07;98202.56;4956202;28;8798;-52
2021/05/04 10:50:46;;;;;;;;;1.00;1.00;;;;;19.81;16.01;98188.09;4963138;28;8836;-50
2021/05/04 10:53:12;;;;;;;;;1.00;1.00;;;;;19.83;15.83;98188.50;4968313;28;8790;-51
2021/05/04 10:55:56;;;;;;;;;1.25;1.25;;;;;19.83;15.93;98190.47;4980335;28;8779;-51
2021/05/04 10:58:26;;;;;;;;;1.00;1.00;;;;;19.84;16.00;98184.63;4978377;28;8817;-50
2021/05/04 11:00:56;;;;;;;;;1.00;1.00;;;;;19.86;15.87;98178.81;4961701;28;8781;-51
2021/05/04 11:03:31;;;;;;;;;1.00;1.00;;;;;19.89;15.83;98172.56;4958636;28;8846;-52
2021/05/04 11:06:07;;;;;;;;;1.60;1.60;;;;;19.88;15.97;98178.44;4960844;28;8802;-51
2021/05/04 11:08:42;;;;;;;;;1.00;1.00;;;;;19.88;15.91;98168.28;4971071;28;8811;-49
2021/05/04 11:11:29;;;;;;;;;1.00;1.00;;;;;19.89;15.99;98169.84;4969154;28;8796;-50
2021/05/04 11:13:58;;;;;;;;;1.00;1.00;;;;;19.90;15.90;98163.22;4964536;28;8802;-51
2021/05/04 11:16:42;;;;;;;;;1.00;1.00;;;;;19.90;16.06;98155.00;4975237;28;8821;-51
2021/05/04 11:19:10;;;;;;;;;1.00;1.00;;;;;19.39;21.18;98166.22;4961313;28;8868;-47
2021/05/04 11:21:43;;;;;;;;;2.00;2.00;;;;;19.24;21.70;98163.22;4957327;28;8800;-51
2021/05/04 11:24:11;;;;;;;;;1.60;1.20;;;;;19.67;18.88;98150.31;4958607;28;8822;-51
2021/05/04 11:26:44;;;;;;;;;1.00;1.00;;;;;19.82;18.38;98156.03;4970661;28;8821;-52
2021/05/04 11:29:10;;;;;;;;;2.00;2.00;;;;;19.86;18.05;98151.44;4979010;28;8847;-51
2021/05/04 11:31:40;;;;;;;;;1.00;1.00;;;;;19.90;17.27;98146.81;4981326;28;8817;-51
2021/05/04 11:34:43;;;;;;;;;1.00;1.00;;;;;19.93;17.41;98142.53;4975897;28;8913;-52
2021/05/04 11:37:11;;;;;;;;;1.00;1.00;;;;;19.92;17.35;98139.00;4976469;28;8957;-51
2021/05/04 11:39:54;;;;;;;;;1.00;1.00;;;;;19.94;16.80;98144.91;4975829;28;8910;-52
2021/05/04 11:42:31;;;;;;;;;1.20;1.00;;;;;19.94;16.93;98135.91;4961732;28;8839;-51
2021/05/04 11:45:10;;;;;;;;;1.00;1.00;;;;;19.91;16.79;98142.91;4968795;28;8858;-50
2021/05/04 11:47:38;;;;;;;;;1.00;1.00;;;;;19.98;16.47;98143.03;4982609;28;8774;-50
2021/05/04 11:50:28;;;;;;;;;2.00;2.00;;;;;20.00;16.25;98146.19;4978846;28;8798;-52
2021/05/04 11:53:00;;;;;;;;;1.00;1.00;;;;;19.99;16.60;98139.13;4970350;28;8868;-52